EDT,Max TemperatureF,Mean TemperatureF,Min TemperatureF,Max Dew PointF,MeanDew PointF,Min DewpointF,Max Humidity, Mean Humidity, Min Humidity, Max Sea Level PressureIn, Mean Sea Level PressureIn, Min Sea Level PressureIn, Max VisibilityMiles, Mean VisibilityMiles, Min VisibilityMiles, Max Wind SpeedMPH, Mean Wind SpeedMPH, Max Gust SpeedMPH,PrecipitationIn, CloudCover, Events, WindDirDegrees
2013-3-1,36,33,30,34,31,28,100,95,89,29.99,29.94,29.89,10,2,0,7,2,10,0.46,8,Fog-Rain-Snow,298
2013-3-2,31,28,24,30,24,21,92,84,75,30.08,29.99,29.93,10,5,2,9,2,15,0.02,8,Snow,324
2013-3-3,30,27,23,25,20,14,96,75,53,30.11,30.04,30.01,10,6,0,10,3,18,0.02,8,Fog-Snow,298
2013-3-4,47,34,20,22,19,16,92,63,33,30.20,30.11,30.02,10,10,10,6,1,12,T,2,Rain,175
2013-3-5,48,39,30,46,38,20,100,72,44,30.00,29.71,29.53,10,5,1,26,6,48,0.73,8,Rain-Snow,211
2013-3-6,30,29,27,28,26,25,100,93,85,30.27,29.94,29.73,5,2,1,18,7,30,0.14,8,Rain-Snow,270
2013-3-7,33,31,28,28,26,25,100,88,75,30.39,30.33,30.22,10,7,3,7,3,9,T,8,,286
2013-3-8,45,36,27,29,25,22,85,67,49,30.45,30.39,30.33,10,10,9,7,1,14,0.00,2,,9
2013-3-9,64,47,29,30,25,22,72,46,20,30.36,30.23,30.12,10,10,10,8,2,20,0.00,2,,126
2013-3-10,74,63,51,32,29,27,41,29,17,30.09,30.02,29.91,10,10,10,12,5,20,0.00,1,,178
2013-3-11,62,51,39,52,42,28,100,65,29,29.91,29.81,29.72,10,8,2,16,6,24,0.36,6,Rain,224
2013-3-12,48,41,34,34,31,28,96,73,49,30.07,29.98,29.88,10,10,7,10,5,18,T,7,Snow,262
2013-3-13,37,32,27,30,24,14,75,59,43,30.34,30.13,30.03,10,6,0,21,7,29,0.04,8,Fog-Snow,284
2013-3-14,47,34,21,19,16,11,84,55,25,30.39,30.31,30.24,10,10,9,10,4,16,0.00,2,,272
2013-3-15,62,47,31,34,28,17,72,54,36,30.21,30.02,29.84,10,10,10,9,4,17,T,0,,211
2013-3-16,72,59,46,47,43,35,71,56,40,29.94,29.77,29.71,10,10,8,18,8,31,T,3,Rain,241
2013-3-17,47,41,35,40,35,33,92,84,76,30.08,30.00,29.92,10,8,2,10,4,17,0.05,8,Rain,41
2013-3-18,53,45,36,50,45,35,100,92,83,29.94,29.80,29.70,10,4,0,18,5,29,1.46,8,Fog-Rain-Thunderstorm,174
2013-3-19,50,42,34,45,22,2,89,53,16,30.13,30.01,29.85,10,9,0,21,8,33,0.00,2,,262
2013-3-20,51,38,25,22,15,9,53,40,26,30.13,30.03,29.88,10,9,2,21,7,32,0.00,3,,254
2013-3-21,30,25,19,20,12,7,67,57,46,30.06,29.98,29.95,10,7,0,13,5,20,T,6,Snow,294
2013-3-22,48,33,17,16,12,9,74,50,25,30.12,30.05,30.00,10,10,10,7,1,13,0.00,3,,250
2013-3-23,53,45,36,26,17,9,45,37,29,30.04,29.98,29.84,10,10,10,9,1,15,0.00,6,,64
2013-3-24,44,40,36,43,37,19,100,70,39,29.83,29.50,29.35,10,4,0,16,4,25,0.86,7,Fog-Rain,44
2013-3-25,38,34,29,36,28,26,92,84,75,29.96,29.66,29.47,10,2,0,20,9,35,0.25,8,Fog-Rain-Snow,248
2013-3-26,38,34,30,30,29,27,92,84,75,30.26,30.08,29.94,10,6,0,13,6,21,0.07,8,Fog-Snow,279
2013-3-27,42,36,29,27,23,20,85,65,44,30.34,30.30,30.25,10,10,10,13,5,17,T,5,,269
2013-3-28,51,40,29,23,21,20,69,52,34,30.36,30.32,30.28,10,10,10,10,3,16,0.00,2,,307
2013-3-29,59,46,32,34,26,21,79,53,26,30.34,30.29,30.22,10,10,10,12,3,20,0.00,3,,208
2013-3-30,62,49,36,37,33,28,100,65,29,30.25,30.14,29.98,10,10,6,16,1,10,0.00,2,,200
2013-3-31,56,51,45,49,46,35,100,77,54,29.95,29.86,29.81,10,6,0,15,5,21,0.17,7,Fog-Rain,220